createdAt,value
2018-06-16T00:00:06.038Z,15.30
2018-06-16T00:02:34.981Z,15.20
2018-06-16T00:05:04.137Z,15.30
2018-06-16T00:07:32.944Z,15.30
2018-06-16T00:10:01.844Z,15.30
2018-06-16T00:12:30.921Z,15.20
2018-06-16T00:14:59.765Z,15.20
2018-06-16T00:17:28.612Z,15.20
2018-06-16T00:19:57.634Z,15.10
2018-06-16T00:22:26.660Z,15.10
2018-06-16T00:25:00.161Z,15.10
2018-06-16T00:27:30.077Z,15.10
2018-06-16T00:29:58.926Z,15.10
2018-06-16T00:32:27.801Z,15.10
2018-06-16T00:34:56.631Z,15.00
2018-06-16T00:37:25.433Z,15.00
2018-06-16T00:39:55.312Z,14.90
2018-06-16T00:42:24.189Z,14.90
2018-06-16T00:44:53.021Z,14.80
2018-06-16T00:47:21.855Z,14.80
2018-06-16T00:49:50.665Z,14.80
2018-06-16T00:52:19.591Z,14.90
2018-06-16T00:54:48.464Z,14.80
2018-06-16T00:57:28.735Z,14.70
2018-06-16T00:59:57.523Z,14.60
2018-06-16T01:02:26.412Z,14.50
2018-06-16T01:04:55.259Z,14.50
2018-06-16T01:07:24.100Z,14.60
2018-06-16T01:09:52.973Z,14.50
2018-06-16T01:12:21.803Z,14.50
2018-06-16T01:14:51.404Z,14.50
2018-06-16T01:17:20.337Z,14.30
2018-06-16T01:19:49.310Z,14.20
2018-06-16T01:22:18.135Z,14.10
2018-06-16T01:24:47.015Z,14.10
2018-06-16T01:27:15.897Z,14.10
2018-06-16T01:29:44.688Z,14.00
2018-06-16T01:32:13.557Z,13.80
2018-06-16T01:34:42.413Z,13.80
2018-06-16T01:39:39.824Z,13.80
2018-06-16T01:42:08.825Z,13.70
2018-06-16T01:44:37.632Z,13.70
2018-06-16T01:47:06.742Z,13.70
2018-06-16T01:49:35.616Z,13.70
2018-06-16T01:52:04.561Z,13.70
2018-06-16T01:54:33.641Z,13.70
2018-06-16T01:57:02.650Z,13.60
2018-06-16T01:59:31.485Z,13.60
2018-06-16T02:02:00.429Z,13.60
2018-06-16T02:04:29.269Z,13.50
2018-06-16T02:06:58.117Z,13.50
2018-06-16T02:09:26.949Z,13.40
2018-06-16T02:11:55.817Z,13.40
2018-06-16T02:14:24.640Z,13.50
2018-06-16T02:16:53.432Z,13.50
2018-06-16T02:19:22.270Z,13.50
2018-06-16T02:21:51.295Z,13.50
2018-06-16T02:24:20.177Z,13.40
2018-06-16T02:26:48.957Z,13.40
2018-06-16T02:29:17.836Z,13.40
2018-06-16T02:31:47.601Z,13.40
2018-06-16T02:34:16.469Z,13.40
2018-06-16T02:36:45.530Z,13.30
2018-06-16T02:39:14.372Z,13.30
2018-06-16T02:41:43.197Z,13.30
2018-06-16T02:44:12.077Z,13.20
2018-06-16T02:46:40.842Z,13.10
2018-06-16T02:54:07.794Z,12.90
2018-06-16T02:56:36.620Z,13.00
2018-06-16T03:01:34.123Z,12.90
2018-06-16T03:04:03.938Z,12.90
2018-06-16T03:06:33.810Z,12.80
2018-06-16T03:09:02.709Z,12.80
2018-06-16T03:11:31.629Z,12.70
2018-06-16T03:14:00.443Z,12.70
2018-06-16T03:16:29.328Z,12.70
2018-06-16T03:18:58.125Z,12.60
2018-06-16T03:21:26.920Z,12.60
2018-06-16T03:23:55.701Z,12.60
2018-06-16T03:26:24.496Z,12.60
2018-06-16T03:28:53.272Z,12.50
2018-06-16T03:31:22.149Z,12.50
2018-06-16T03:33:50.938Z,12.50
2018-06-16T03:36:19.793Z,12.60
2018-06-16T03:38:48.536Z,12.50
2018-06-16T03:41:17.349Z,12.60
2018-06-16T03:43:46.159Z,12.60
2018-06-16T03:46:14.949Z,12.60
2018-06-16T03:48:43.754Z,12.60
2018-06-16T03:51:12.548Z,12.70
2018-06-16T03:53:41.343Z,12.50
2018-06-16T03:56:10.231Z,12.50
2018-06-16T03:58:39.056Z,12.60
2018-06-16T04:01:08.005Z,12.50
2018-06-16T04:03:36.806Z,12.50
2018-06-16T04:06:05.821Z,12.50
2018-06-16T04:08:34.620Z,12.60
2018-06-16T04:11:03.443Z,12.60
2018-06-16T04:13:32.224Z,12.70
2018-06-16T04:16:01.025Z,12.70
2018-06-16T04:18:29.808Z,12.70
2018-06-16T04:20:58.616Z,12.70
2018-06-16T04:23:27.396Z,12.70
2018-06-16T04:25:56.281Z,12.70
2018-06-16T04:28:25.106Z,12.80
2018-06-16T04:30:53.942Z,12.90
2018-06-16T04:33:22.746Z,12.90
2018-06-16T04:35:51.569Z,13.00
2018-06-16T04:38:20.358Z,12.90
2018-06-16T04:40:49.197Z,13.00
2018-06-16T04:43:17.997Z,13.10
2018-06-16T04:45:46.819Z,13.10
2018-06-16T04:48:15.612Z,13.10
2018-06-16T04:50:44.418Z,13.30
2018-06-16T04:53:13.200Z,13.30
2018-06-16T04:55:42.028Z,13.40
2018-06-16T04:58:10.839Z,13.50
2018-06-16T05:00:39.605Z,13.50
2018-06-16T05:03:08.429Z,13.60
2018-06-16T05:05:37.213Z,13.70
2018-06-16T05:08:06.027Z,13.70
2018-06-16T05:10:34.835Z,13.70
2018-06-16T05:15:32.074Z,13.80
2018-06-16T05:18:00.881Z,13.80
2018-06-16T05:20:29.699Z,13.90
2018-06-16T05:22:58.497Z,13.90
2018-06-16T05:25:27.335Z,14.10
2018-06-16T05:27:56.336Z,14.10
2018-06-16T05:30:25.131Z,14.20
2018-06-16T05:32:53.961Z,14.30
2018-06-16T05:35:22.753Z,14.30
2018-06-16T05:37:51.521Z,14.30
2018-06-16T05:40:20.312Z,14.30
2018-06-16T05:42:49.149Z,14.40
2018-06-16T05:45:17.958Z,14.40
2018-06-16T05:47:46.760Z,14.50
2018-06-16T05:52:44.011Z,14.70
2018-06-16T05:55:12.831Z,14.80
2018-06-16T05:57:41.647Z,14.90
2018-06-16T06:00:10.417Z,15.00
2018-06-16T06:02:39.206Z,15.00
2018-06-16T06:05:08.008Z,15.10
2018-06-16T06:07:36.787Z,15.10
2018-06-16T06:10:05.660Z,15.20
2018-06-16T06:12:34.472Z,15.20
2018-06-16T06:15:03.224Z,15.30
2018-06-16T06:17:32.073Z,15.30
2018-06-16T06:20:00.865Z,15.40
2018-06-16T06:22:29.664Z,15.50
2018-06-16T06:24:58.490Z,15.50
2018-06-16T06:27:27.281Z,15.50
2018-06-16T06:29:56.171Z,15.60
2018-06-16T06:32:24.965Z,15.70
2018-06-16T06:34:53.794Z,15.80
2018-06-16T06:37:22.648Z,15.90
2018-06-16T06:39:51.460Z,15.90
2018-06-16T06:42:20.269Z,16.00
2018-06-16T06:44:49.077Z,16.00
2018-06-16T06:47:27.449Z,16.00
2018-06-16T06:49:56.253Z,16.10
2018-06-16T06:52:25.054Z,16.30
2018-06-16T06:54:57.185Z,16.30
2018-06-16T06:57:26.012Z,16.40
2018-06-16T06:59:54.900Z,16.50
2018-06-16T07:02:23.740Z,16.60
2018-06-16T07:04:52.581Z,16.70
2018-06-16T07:07:21.618Z,16.70
2018-06-16T07:09:50.394Z,16.80
2018-06-16T07:12:19.181Z,16.90
2018-06-16T07:14:47.993Z,17.10
2018-06-16T07:17:16.752Z,17.10
2018-06-16T07:19:45.542Z,17.30
2018-06-16T07:22:14.313Z,17.40
2018-06-16T07:24:44.173Z,17.50
2018-06-16T07:27:13.056Z,17.60
2018-06-16T07:29:41.752Z,17.60
2018-06-16T07:32:10.885Z,17.70
2018-06-16T07:34:39.669Z,17.80
2018-06-16T07:37:08.439Z,17.80
2018-06-16T07:39:37.212Z,17.90
2018-06-16T07:42:06.011Z,18.00
2018-06-16T07:44:34.792Z,18.10
2018-06-16T07:47:03.555Z,18.10
2018-06-16T07:49:32.361Z,18.20
2018-06-16T07:52:01.167Z,18.30
2018-06-16T07:54:29.957Z,18.40
2018-06-16T07:56:58.733Z,18.40
2018-06-16T07:59:27.556Z,18.50
2018-06-16T08:01:56.449Z,18.60
2018-06-16T08:06:53.765Z,18.80
2018-06-16T08:09:22.557Z,19.00
2018-06-16T08:11:51.866Z,19.30
2018-06-16T08:14:20.760Z,19.50
2018-06-16T08:16:49.570Z,19.50
2018-06-16T08:19:18.443Z,19.50
2018-06-16T08:21:47.330Z,19.50
2018-06-16T08:24:16.081Z,19.60
2018-06-16T08:26:44.869Z,19.60
2018-06-16T08:29:13.692Z,19.80
2018-06-16T08:31:44.200Z,19.90
2018-06-16T08:34:12.981Z,19.90
2018-06-16T08:36:41.765Z,20.00
2018-06-16T08:39:12.003Z,20.10
2018-06-16T08:41:41.359Z,20.30
2018-06-16T08:46:38.800Z,20.50
2018-06-16T08:49:08.053Z,20.70
2018-06-16T08:51:36.814Z,20.80
2018-06-16T08:54:05.900Z,20.80
2018-06-16T08:56:34.676Z,20.80
2018-06-16T08:59:03.448Z,20.70
2018-06-16T09:01:32.232Z,20.70
2018-06-16T09:04:01.085Z,20.80
2018-06-16T09:06:29.991Z,20.90
2018-06-16T09:11:27.248Z,21.10
2018-06-16T09:13:55.960Z,21.20
2018-06-16T09:16:24.768Z,21.10
2018-06-16T09:18:53.717Z,21.10
2018-06-16T09:21:22.565Z,21.10
2018-06-16T09:23:51.392Z,21.20
2018-06-16T09:26:20.318Z,21.20
2018-06-16T09:28:49.138Z,21.50
2018-06-16T09:31:17.940Z,21.90
2018-06-16T09:33:46.793Z,22.10
2018-06-16T09:36:15.707Z,22.50
2018-06-16T09:38:44.545Z,22.70
2018-06-16T09:41:13.345Z,22.70
2018-06-16T09:43:42.154Z,22.70
2018-06-16T09:46:10.990Z,22.70
2018-06-16T09:48:39.778Z,22.80
2018-06-16T09:51:08.569Z,23.20
2018-06-16T09:53:37.349Z,23.10
2018-06-16T09:56:06.249Z,22.80
2018-06-16T09:58:35.016Z,23.20
2018-06-16T10:01:03.836Z,23.70
2018-06-16T10:03:32.665Z,24.00
2018-06-16T10:06:01.505Z,24.00
2018-06-16T10:08:30.294Z,24.10
2018-06-16T10:10:59.141Z,24.20
2018-06-16T10:13:27.973Z,24.40
2018-06-16T10:15:56.789Z,24.70
2018-06-16T10:18:25.540Z,24.50
2018-06-16T10:20:54.394Z,24.60
2018-06-16T10:23:23.246Z,24.40
2018-06-16T10:25:52.016Z,24.40
2018-06-16T10:28:20.880Z,24.40
2018-06-16T10:30:49.713Z,24.30
2018-06-16T10:33:18.499Z,24.50
2018-06-16T10:35:47.340Z,25.00
2018-06-16T10:38:16.243Z,25.10
2018-06-16T10:40:45.146Z,25.10
2018-06-16T10:43:14.038Z,25.20
2018-06-16T10:45:42.760Z,25.20
2018-06-16T10:48:11.641Z,25.50
2018-06-16T10:50:40.466Z,25.40
2018-06-16T10:53:09.224Z,25.60
2018-06-16T10:55:38.044Z,25.40
2018-06-16T10:58:06.877Z,25.70
2018-06-16T11:00:35.727Z,25.60
2018-06-16T11:03:04.591Z,25.90
2018-06-16T11:05:33.385Z,25.70
2018-06-16T11:08:02.335Z,25.20
2018-06-16T11:10:31.238Z,25.20
2018-06-16T11:13:00.124Z,25.00
2018-06-16T11:15:28.979Z,24.70
2018-06-16T11:20:26.273Z,24.40
2018-06-16T11:22:55.080Z,24.10
2018-06-16T11:25:23.945Z,24.30
2018-06-16T11:27:52.765Z,24.70
2018-06-16T11:30:21.708Z,25.00
2018-06-16T11:32:50.460Z,25.30
2018-06-16T11:35:24.514Z,25.70
2018-06-16T11:40:23.873Z,26.10
2018-06-16T11:42:52.684Z,26.10
2018-06-16T11:45:21.463Z,26.00
2018-06-16T11:47:50.301Z,26.00
2018-06-16T11:50:19.130Z,26.00
2018-06-16T11:52:48.179Z,25.90
2018-06-16T11:55:16.994Z,26.30
2018-06-16T11:57:45.833Z,26.30
2018-06-16T12:00:14.756Z,26.60
2018-06-16T12:02:43.541Z,26.80
2018-06-16T12:05:12.323Z,26.60
2018-06-16T12:07:41.128Z,27.10
2018-06-16T12:10:10.452Z,27.10
2018-06-16T12:15:07.621Z,26.90
2018-06-16T12:17:36.473Z,26.60
2018-06-16T12:20:07.345Z,26.80
2018-06-16T12:22:36.117Z,27.00
2018-06-16T12:25:05.014Z,26.70
2018-06-16T12:27:33.837Z,26.50
2018-06-16T12:30:02.812Z,26.40
2018-06-16T12:32:31.717Z,26.60
2018-06-16T12:35:00.625Z,26.80
2018-06-16T12:37:29.563Z,26.90
2018-06-16T12:39:58.360Z,26.40
2018-06-16T12:42:31.155Z,26.60
2018-06-16T12:44:59.963Z,26.80
2018-06-16T12:47:28.734Z,27.10
2018-06-16T12:49:57.505Z,27.40
2018-06-16T12:52:26.271Z,27.80
2018-06-16T12:54:55.507Z,27.60
2018-06-16T12:57:24.364Z,27.70
2018-06-16T12:59:53.210Z,27.40
2018-06-16T13:02:21.970Z,27.60
2018-06-16T13:04:50.727Z,27.20
2018-06-16T13:07:19.602Z,26.90
2018-06-16T13:09:48.360Z,27.20
2018-06-16T13:12:17.130Z,27.40
2018-06-16T13:14:46.036Z,27.50
2018-06-16T13:17:14.793Z,26.70
2018-06-16T13:19:43.554Z,26.50
2018-06-16T13:22:12.645Z,26.10
2018-06-16T13:24:41.613Z,25.80
2018-06-16T13:27:10.369Z,26.00
2018-06-16T13:29:39.189Z,25.70
2018-06-16T13:32:07.962Z,25.70
2018-06-16T13:34:36.809Z,25.90
2018-06-16T13:37:05.571Z,25.90
2018-06-16T13:39:34.369Z,25.90
2018-06-16T13:42:03.148Z,25.80
2018-06-16T13:44:31.934Z,26.00
2018-06-16T13:47:00.702Z,26.20
2018-06-16T13:49:29.513Z,26.30
2018-06-16T13:51:58.337Z,26.60
2018-06-16T13:54:31.972Z,26.80
2018-06-16T13:57:01.509Z,27.00
2018-06-16T13:59:31.265Z,27.00
2018-06-16T14:02:00.069Z,26.90
2018-06-16T14:04:29.130Z,26.70
2018-06-16T14:06:59.075Z,26.80
2018-06-16T14:09:29.798Z,27.00
2018-06-16T14:11:59.063Z,27.20
2018-06-16T14:14:28.333Z,26.80
2018-06-16T14:16:58.244Z,26.40
2018-06-16T14:21:55.488Z,26.60
2018-06-16T14:24:24.292Z,26.30
2018-06-16T14:26:53.280Z,25.90
2018-06-16T14:29:22.097Z,25.60
2018-06-16T14:31:51.808Z,25.40
2018-06-16T14:34:20.630Z,25.50
2018-06-16T14:36:49.461Z,25.40
2018-06-16T14:39:18.276Z,25.70
2018-06-16T14:41:47.074Z,25.70
2018-06-16T14:44:15.927Z,25.50
2018-06-16T14:46:44.741Z,25.70
2018-06-16T14:49:14.574Z,26.00
2018-06-16T14:51:43.345Z,25.80
2018-06-16T14:54:12.217Z,26.00
2018-06-16T14:56:41.005Z,25.90
2018-06-16T14:59:09.793Z,25.70
2018-06-16T15:01:38.586Z,25.80
2018-06-16T15:04:07.383Z,25.60
2018-06-16T15:06:36.234Z,25.50
2018-06-16T15:09:07.743Z,25.40
2018-06-16T15:11:36.566Z,25.50
2018-06-16T15:14:05.424Z,25.40
2018-06-16T15:16:34.240Z,25.40
2018-06-16T15:19:03.093Z,25.30
2018-06-16T15:21:31.862Z,25.30
2018-06-16T15:26:29.145Z,25.10
2018-06-16T15:28:58.102Z,25.10
2018-06-16T15:31:26.977Z,25.20
2018-06-16T15:33:55.931Z,25.20
2018-06-16T15:36:25.459Z,25.40
2018-06-16T15:38:54.201Z,25.50
2018-06-16T15:41:23.035Z,25.40
2018-06-16T15:43:52.199Z,25.50
2018-06-16T15:46:20.989Z,25.40
2018-06-16T15:48:50.115Z,25.40
2018-06-16T15:51:20.468Z,25.50
2018-06-16T15:53:49.300Z,25.60
2018-06-16T15:56:18.076Z,25.70
2018-06-16T15:58:46.840Z,25.60
2018-06-16T16:01:16.045Z,25.90
2018-06-16T16:03:45.747Z,26.00
2018-06-16T16:06:14.609Z,26.40
2018-06-16T16:08:43.857Z,26.40
2018-06-16T16:11:12.656Z,26.50
2018-06-16T16:13:41.430Z,26.80
2018-06-16T16:16:10.257Z,27.00
2018-06-16T16:18:39.581Z,27.10
2018-06-16T16:21:08.944Z,26.80
2018-06-16T16:23:38.794Z,26.80
2018-06-16T16:28:36.105Z,26.60
2018-06-16T16:31:05.577Z,26.70
2018-06-16T16:33:34.328Z,26.60
2018-06-16T16:36:03.747Z,26.80
2018-06-16T16:38:32.548Z,27.20
2018-06-16T16:41:03.065Z,27.20
2018-06-16T16:43:32.384Z,27.20
2018-06-16T16:46:01.758Z,27.10
2018-06-16T16:48:30.951Z,27.20
2018-06-16T16:50:59.800Z,27.00
2018-06-16T16:53:29.053Z,27.10
2018-06-16T16:55:57.924Z,27.00
2018-06-16T16:58:27.832Z,27.00
2018-06-16T17:00:56.924Z,26.90
2018-06-16T17:03:25.701Z,27.00
2018-06-16T17:05:54.487Z,26.90
2018-06-16T17:08:23.800Z,26.70
2018-06-16T17:10:52.673Z,26.50
2018-06-16T17:13:22.411Z,26.60
2018-06-16T17:15:51.371Z,26.60
2018-06-16T17:18:20.252Z,26.50
2018-06-16T17:23:17.499Z,26.30
2018-06-16T17:25:46.318Z,26.20
2018-06-16T17:28:15.107Z,26.20
2018-06-16T17:30:43.914Z,26.00
2018-06-16T17:33:13.302Z,25.80
2018-06-16T17:35:42.088Z,25.70
2018-06-16T17:38:11.015Z,25.60
2018-06-16T17:40:39.812Z,25.60
2018-06-16T17:43:08.599Z,25.40
2018-06-16T17:45:37.695Z,25.20
2018-06-16T17:48:08.052Z,25.20
2018-06-16T17:50:36.797Z,25.00
2018-06-16T17:53:06.159Z,24.80
2018-06-16T17:58:04.761Z,24.60
2018-06-16T18:00:33.557Z,24.40
2018-06-16T18:03:02.458Z,24.30
2018-06-16T18:05:31.217Z,24.30
2018-06-16T18:10:28.749Z,24.10
2018-06-16T18:12:58.085Z,23.90
2018-06-16T18:15:27.398Z,23.90
2018-06-16T18:17:56.329Z,23.80
2018-06-16T18:20:25.436Z,23.80
2018-06-16T18:22:54.886Z,23.60
2018-06-16T18:25:23.828Z,23.50
2018-06-16T18:27:53.081Z,23.30
2018-06-16T18:30:22.425Z,23.20
2018-06-16T18:32:51.204Z,23.00
2018-06-16T18:35:19.994Z,23.00
2018-06-16T18:37:50.644Z,22.90
2018-06-16T18:40:19.746Z,22.90
2018-06-16T18:42:49.059Z,22.70
2018-06-16T18:45:18.026Z,22.50
2018-06-16T18:47:47.176Z,22.40
2018-06-16T18:50:16.087Z,22.30
2018-06-16T18:52:45.060Z,22.20
2018-06-16T18:55:13.824Z,22.20
2018-06-16T18:57:43.681Z,22.10
2018-06-16T19:00:12.472Z,22.00
2018-06-16T19:02:41.289Z,21.80
2018-06-16T19:05:10.125Z,21.70
2018-06-16T19:07:39.408Z,21.70
2018-06-16T19:10:08.586Z,21.50
2018-06-16T19:12:38.645Z,21.40
2018-06-16T19:17:37.181Z,21.30
2018-06-16T19:20:06.664Z,21.20
2018-06-16T19:22:35.838Z,21.10
2018-06-16T19:25:04.987Z,21.00
2018-06-16T19:27:34.441Z,20.90
2018-06-16T19:30:03.328Z,20.80
2018-06-16T19:32:32.780Z,20.70
2018-06-16T19:35:02.084Z,20.60
2018-06-16T19:37:31.484Z,20.50
2018-06-16T19:40:00.613Z,20.40
2018-06-16T19:44:58.289Z,20.30
2018-06-16T19:47:27.644Z,20.20
2018-06-16T19:49:56.619Z,20.00
2018-06-16T19:52:26.186Z,20.00
2018-06-16T19:54:55.464Z,20.00
2018-06-16T19:57:25.256Z,19.90
2018-06-16T19:59:54.615Z,19.90
2018-06-16T20:02:24.097Z,19.80
2018-06-16T20:04:53.833Z,19.80
2018-06-16T20:07:23.200Z,19.80
2018-06-16T20:09:52.881Z,19.70
2018-06-16T20:12:22.149Z,19.70
2018-06-16T20:14:51.364Z,19.70
2018-06-16T20:17:20.405Z,19.70
2018-06-16T20:19:50.324Z,19.70
2018-06-16T20:22:19.646Z,19.70
2018-06-16T20:27:17.749Z,19.80
2018-06-16T20:29:46.979Z,19.80
2018-06-16T20:32:16.015Z,19.90
2018-06-16T20:34:45.167Z,20.00
2018-06-16T20:37:14.401Z,20.00
2018-06-16T20:39:43.833Z,20.00
2018-06-16T20:42:12.566Z,20.10
2018-06-16T20:44:41.417Z,20.00
2018-06-16T20:47:10.192Z,19.90
2018-06-16T20:49:39.168Z,19.70
2018-06-16T20:52:07.961Z,19.70
2018-06-16T20:54:36.848Z,19.60
2018-06-16T20:57:05.624Z,19.50
2018-06-16T20:59:34.427Z,19.40
2018-06-16T21:02:03.242Z,19.30
2018-06-16T21:04:32.081Z,19.30
2018-06-16T21:07:00.902Z,19.40
2018-06-16T21:09:29.709Z,19.40
2018-06-16T21:11:58.483Z,19.40
2018-06-16T21:14:27.380Z,19.50
2018-06-16T21:16:56.169Z,19.50
2018-06-16T21:19:24.981Z,19.50
2018-06-16T21:21:53.774Z,19.50
2018-06-16T21:24:22.548Z,19.60
2018-06-16T21:26:51.311Z,19.60
2018-06-16T21:29:20.088Z,19.60
2018-06-16T21:31:48.864Z,19.50
2018-06-16T21:34:17.644Z,19.60
2018-06-16T21:39:14.854Z,19.50
2018-06-16T21:41:43.875Z,19.50
2018-06-16T21:44:12.660Z,19.60
2018-06-16T21:46:41.411Z,19.60
2018-06-16T21:49:10.526Z,19.60
2018-06-16T21:51:39.284Z,19.50
2018-06-16T21:54:08.094Z,19.40
2018-06-16T21:56:36.886Z,19.30
2018-06-16T21:59:05.649Z,19.30
2018-06-16T22:01:36.144Z,19.20
2018-06-16T22:04:05.501Z,19.20
2018-06-16T22:06:34.609Z,19.20
2018-06-16T22:09:04.643Z,19.20
2018-06-16T22:11:33.473Z,19.20
2018-06-16T22:14:02.251Z,19.10
2018-06-16T22:16:31.000Z,19.00
2018-06-16T22:18:59.842Z,19.00
2018-06-16T22:21:28.578Z,18.90
2018-06-16T22:23:57.404Z,18.90
2018-06-16T22:26:27.260Z,18.70
2018-06-16T22:28:56.024Z,18.60
2018-06-16T22:31:24.790Z,18.40
2018-06-16T22:33:55.481Z,18.30
2018-06-16T22:36:24.340Z,18.20
2018-06-16T22:38:53.109Z,18.20
2018-06-16T22:43:50.388Z,18.20
2018-06-16T22:46:19.147Z,18.20
2018-06-16T22:48:47.901Z,18.10
2018-06-16T22:51:16.665Z,18.00
2018-06-16T22:53:45.445Z,17.90
2018-06-16T22:56:14.244Z,18.00
2018-06-16T22:58:43.043Z,17.90
2018-06-16T23:01:11.869Z,17.90
2018-06-16T23:03:40.649Z,17.90
2018-06-16T23:06:09.436Z,18.00
2018-06-16T23:08:38.274Z,17.90
2018-06-16T23:11:07.142Z,17.90
2018-06-16T23:13:35.904Z,17.90
2018-06-16T23:16:04.757Z,17.90
2018-06-16T23:18:33.548Z,17.90
2018-06-16T23:21:02.346Z,17.90
2018-06-16T23:23:31.217Z,17.90
2018-06-16T23:26:00.041Z,17.90
2018-06-16T23:28:28.864Z,17.80
2018-06-16T23:30:58.777Z,17.80
2018-06-16T23:33:27.896Z,17.70
2018-06-16T23:35:56.702Z,17.60
2018-06-16T23:38:25.940Z,17.60
2018-06-16T23:40:54.733Z,17.60
2018-06-16T23:43:23.521Z,17.60
2018-06-16T23:45:52.296Z,17.60
2018-06-16T23:48:21.071Z,17.50
2018-06-16T23:50:49.988Z,17.40
2018-06-16T23:53:18.861Z,17.40
2018-06-16T23:55:47.860Z,17.50
2018-06-16T23:58:16.645Z,17.50
